createdAt,value
2022-09-30T00:02:56.938Z,10.70
2022-09-30T00:07:55.684Z,8.80
2022-09-30T00:12:54.803Z,6.43
2022-09-30T00:17:53.471Z,5.30
2022-09-30T00:22:53.539Z,4.45
2022-09-30T00:27:52.315Z,4.50
2022-09-30T00:32:51.015Z,3.20
2022-09-30T00:37:49.742Z,2.42
2022-09-30T00:42:50.433Z,2.30
2022-09-30T00:47:53.854Z,3.33
2022-09-30T00:52:57.096Z,3.20
2022-09-30T00:57:58.383Z,2.40
2022-09-30T01:02:57.438Z,3.67
2022-09-30T01:07:59.121Z,2.30
2022-09-30T01:13:00.142Z,2.53
2022-09-30T01:18:07.917Z,2.38
2022-09-30T01:23:24.980Z,2.50
2022-09-30T01:28:56.595Z,2.47
2022-09-30T01:34:03.865Z,2.73
2022-09-30T01:39:16.772Z,1.73
2022-09-30T01:44:20.400Z,2.28
2022-09-30T01:49:31.138Z,2.20
2022-09-30T01:54:35.566Z,1.80
2022-09-30T01:59:38.613Z,2.03
2022-09-30T02:04:43.734Z,1.98
2022-09-30T02:09:49.377Z,2.38
2022-09-30T02:14:54.527Z,2.65
2022-09-30T02:20:00.611Z,2.45
2022-09-30T02:25:03.159Z,2.15
2022-09-30T02:30:04.194Z,1.63
2022-09-30T02:35:08.862Z,2.85
2022-09-30T02:40:13.161Z,1.63
2022-09-30T02:45:16.498Z,1.77
2022-09-30T02:50:21.690Z,1.63
2022-09-30T02:55:28.163Z,1.70
2022-09-30T03:00:27.992Z,1.88
2022-09-30T03:05:28.945Z,1.88
2022-09-30T03:10:30.548Z,1.77
2022-09-30T03:15:42.356Z,1.93
2022-09-30T03:20:53.823Z,1.50
2022-09-30T03:26:00.473Z,2.33
2022-09-30T03:31:07.135Z,1.90
2022-09-30T03:36:15.219Z,2.40
2022-09-30T03:41:20.540Z,3.97
2022-09-30T03:46:26.181Z,4.72
2022-09-30T03:51:26.575Z,3.97
2022-09-30T03:56:29.754Z,5.28
2022-09-30T04:01:29.418Z,3.97
2022-09-30T04:06:29.639Z,4.43
2022-09-30T04:11:28.434Z,4.10
2022-09-30T04:16:27.271Z,5.10
2022-09-30T04:21:28.824Z,3.53
2022-09-30T04:26:29.024Z,11.40
2022-09-30T04:31:27.824Z,7.28
2022-09-30T04:36:26.611Z,4.32
2022-09-30T04:41:25.966Z,4.15
2022-09-30T04:46:26.171Z,3.65
2022-09-30T04:51:24.882Z,5.05
2022-09-30T04:56:24.552Z,5.25
2022-09-30T05:01:23.417Z,4.60
2022-09-30T05:06:23.583Z,5.13
2022-09-30T05:11:23.158Z,5.10
2022-09-30T05:16:21.980Z,3.47
2022-09-30T05:21:21.285Z,3.28
2022-09-30T05:26:21.354Z,3.53
2022-09-30T05:31:21.017Z,2.35
2022-09-30T05:36:19.847Z,3.25
2022-09-30T05:41:20.511Z,3.35
2022-09-30T05:46:21.272Z,3.78
2022-09-30T05:51:20.208Z,6.10
2022-09-30T05:56:18.970Z,4.90
2022-09-30T06:01:18.197Z,6.70
2022-09-30T06:06:20.175Z,5.03
2022-09-30T06:11:20.969Z,4.22
2022-09-30T06:16:20.286Z,4.78
2022-09-30T06:21:22.946Z,4.07
2022-09-30T06:26:24.653Z,4.55
2022-09-30T06:31:23.898Z,4.38
2022-09-30T06:36:24.043Z,4.15
2022-09-30T06:41:27.688Z,4.95
2022-09-30T06:46:31.072Z,5.60
2022-09-30T06:51:33.270Z,4.25
2022-09-30T06:56:32.741Z,4.40
2022-09-30T07:01:31.478Z,4.07
2022-09-30T07:06:31.307Z,3.30
2022-09-30T07:11:31.412Z,3.60
2022-09-30T07:16:31.761Z,3.47
2022-09-30T07:21:32.059Z,2.85
2022-09-30T07:26:32.296Z,4.45
2022-09-30T07:31:34.008Z,3.38
2022-09-30T07:36:34.482Z,2.90
2022-09-30T07:41:36.632Z,3.08
2022-09-30T07:46:39.235Z,2.35
2022-09-30T07:51:41.028Z,2.60
2022-09-30T07:57:10.285Z,2.88
2022-09-30T08:02:03.113Z,3.03
2022-09-30T08:07:03.587Z,2.65
2022-09-30T08:12:07.411Z,2.42
2022-09-30T08:17:06.364Z,2.63
2022-09-30T08:22:06.622Z,2.40
2022-09-30T08:27:07.041Z,2.47
2022-09-30T08:32:06.000Z,2.35
2022-09-30T08:37:09.259Z,1.77
2022-09-30T08:42:36.602Z,1.88
2022-09-30T08:47:48.177Z,2.03
2022-09-30T08:52:50.209Z,1.98
2022-09-30T08:57:51.447Z,2.40
2022-09-30T09:02:55.936Z,2.97
2022-09-30T09:08:05.152Z,2.25
2022-09-30T09:13:13.575Z,2.47
2022-09-30T09:18:47.087Z,3.25
2022-09-30T09:23:46.420Z,2.83
2022-09-30T09:28:58.173Z,3.53
2022-09-30T09:34:01.946Z,2.10
2022-09-30T09:39:17.684Z,2.80
2022-09-30T09:44:26.989Z,2.70
2022-09-30T09:49:32.468Z,2.28
2022-09-30T09:54:34.182Z,1.90
2022-09-30T09:59:34.291Z,1.98
2022-09-30T10:04:33.330Z,1.92
2022-09-30T10:09:34.790Z,1.45
2022-09-30T10:14:36.700Z,1.83
2022-09-30T10:19:36.558Z,1.38
2022-09-30T10:24:36.735Z,1.60
2022-09-30T10:29:37.500Z,1.98
2022-09-30T10:34:39.844Z,1.55
2022-09-30T10:39:40.571Z,2.05
2022-09-30T10:44:47.067Z,1.80
2022-09-30T10:49:49.769Z,1.60
2022-09-30T10:54:51.254Z,1.73
2022-09-30T10:59:54.554Z,1.40
2022-09-30T11:05:03.869Z,1.50
2022-09-30T11:10:07.975Z,1.40
2022-09-30T11:15:17.539Z,1.98
2022-09-30T11:20:22.315Z,1.40
2022-09-30T11:25:28.959Z,1.63
2022-09-30T11:30:39.332Z,1.50
2022-09-30T11:35:47.393Z,1.48
2022-09-30T11:40:55.936Z,1.75
2022-09-30T11:46:18.066Z,1.65
2022-09-30T11:51:25.260Z,1.40
2022-09-30T11:56:37.702Z,1.17
2022-09-30T12:01:44.024Z,1.20
2022-09-30T12:06:50.230Z,1.10
2022-09-30T12:11:55.714Z,1.55
2022-09-30T12:16:57.907Z,1.42
2022-09-30T12:22:02.638Z,1.00
2022-09-30T12:27:02.323Z,1.50
2022-09-30T12:32:21.618Z,1.20
2022-09-30T12:37:35.779Z,1.20
2022-09-30T12:43:02.174Z,1.20
2022-09-30T12:48:08.006Z,1.60
2022-09-30T12:53:17.763Z,1.88
2022-09-30T12:58:26.186Z,1.40
2022-09-30T13:03:28.854Z,3.17
2022-09-30T13:08:50.593Z,1.58
2022-09-30T13:14:03.887Z,1.10
2022-09-30T13:19:04.180Z,1.30
2022-09-30T13:24:04.664Z,1.90
2022-09-30T13:29:38.263Z,1.83
2022-09-30T13:34:56.754Z,1.73
2022-09-30T13:39:58.015Z,1.42
2022-09-30T13:45:03.820Z,1.52
2022-09-30T13:50:14.319Z,1.42
2022-09-30T13:55:19.798Z,1.90
2022-09-30T14:00:21.540Z,2.25
2022-09-30T14:05:42.606Z,1.70
2022-09-30T14:10:58.817Z,2.00
2022-09-30T14:16:22.926Z,1.40
2022-09-30T14:21:35.263Z,1.63
2022-09-30T14:26:56.365Z,2.03
2022-09-30T14:32:12.977Z,2.10
2022-09-30T14:37:20.083Z,1.70
2022-09-30T14:42:25.438Z,2.20
2022-09-30T14:47:25.963Z,2.35
2022-09-30T14:52:38.398Z,2.70
2022-09-30T14:57:37.198Z,2.50
2022-09-30T15:02:36.263Z,1.98
2022-09-30T15:07:36.535Z,2.45
2022-09-30T15:12:37.581Z,2.47
2022-09-30T15:17:38.896Z,2.05
2022-09-30T15:22:47.777Z,3.00
2022-09-30T15:27:46.998Z,5.30
2022-09-30T15:32:50.277Z,4.07
2022-09-30T15:37:53.083Z,3.72
2022-09-30T15:42:59.691Z,3.53
2022-09-30T15:48:02.451Z,2.50
2022-09-30T15:53:08.936Z,1.80
2022-09-30T15:58:36.548Z,2.63
2022-09-30T16:03:38.746Z,1.88
2022-09-30T16:08:45.488Z,1.88
2022-09-30T16:13:45.933Z,2.22
2022-09-30T16:18:54.982Z,2.50
2022-09-30T16:23:55.633Z,2.95
2022-09-30T16:28:56.020Z,3.80
2022-09-30T16:38:54.865Z,4.90
2022-09-30T16:43:53.703Z,3.22
2022-09-30T16:48:52.781Z,2.25
2022-09-30T16:53:51.934Z,2.47
2022-09-30T16:58:52.568Z,2.63
2022-09-30T17:03:54.346Z,3.33
2022-09-30T17:08:53.655Z,7.05
2022-09-30T17:13:54.012Z,14.23
2022-09-30T17:18:53.551Z,5.55
2022-09-30T17:23:52.681Z,3.00
2022-09-30T17:28:51.557Z,8.40
2022-09-30T17:33:52.004Z,6.38
2022-09-30T17:38:56.549Z,5.55
2022-09-30T17:43:55.521Z,6.70
2022-09-30T17:48:58.062Z,3.17
2022-09-30T17:53:57.102Z,8.43
2022-09-30T17:58:58.494Z,7.30
2022-09-30T18:04:01.334Z,6.53
2022-09-30T18:09:00.771Z,10.10
2022-09-30T18:14:02.036Z,20.33
2022-09-30T18:24:02.138Z,8.05
2022-09-30T18:29:01.204Z,15.30
2022-09-30T18:34:03.050Z,15.73
2022-09-30T18:39:02.823Z,11.45
2022-09-30T18:44:02.585Z,11.23
2022-09-30T18:49:03.402Z,9.65
2022-09-30T18:54:02.663Z,8.60
2022-09-30T18:59:04.211Z,9.48
2022-09-30T19:04:07.290Z,14.93
2022-09-30T19:09:08.092Z,7.90
2022-09-30T19:14:07.145Z,6.07
2022-09-30T19:19:08.302Z,6.55
2022-09-30T19:24:11.447Z,5.45
2022-09-30T19:29:11.534Z,5.78
2022-09-30T19:34:15.582Z,5.40
2022-09-30T19:39:18.854Z,7.30
2022-09-30T19:44:19.265Z,7.28
2022-09-30T19:49:21.755Z,6.85
2022-09-30T19:54:33.845Z,4.43
2022-09-30T19:59:37.103Z,3.95
2022-09-30T20:04:41.531Z,5.32
2022-09-30T20:09:42.859Z,5.00
2022-09-30T20:14:59.088Z,5.55
2022-09-30T20:20:27.564Z,4.82
2022-09-30T20:25:38.497Z,6.50
2022-09-30T20:30:51.495Z,5.28
2022-09-30T20:35:55.734Z,6.00
2022-09-30T20:40:57.241Z,4.38
2022-09-30T20:46:00.356Z,4.57
2022-09-30T20:51:01.076Z,3.60
2022-09-30T20:56:02.050Z,3.88
2022-09-30T21:01:03.700Z,3.93
2022-09-30T21:11:04.062Z,3.70
2022-09-30T21:16:05.288Z,2.88
2022-09-30T21:21:06.124Z,3.10
2022-09-30T21:26:07.240Z,3.08
2022-09-30T21:31:08.072Z,3.03
2022-09-30T21:36:08.495Z,3.57
2022-09-30T21:41:08.666Z,2.65
2022-09-30T21:46:09.313Z,2.85
2022-09-30T21:51:10.337Z,2.95
2022-09-30T21:56:11.726Z,3.03
2022-09-30T22:01:11.800Z,2.13
2022-09-30T22:06:13.132Z,2.53
2022-09-30T22:11:17.703Z,2.22
2022-09-30T22:16:17.018Z,2.20
2022-09-30T22:21:19.316Z,2.67
2022-09-30T22:26:21.477Z,2.33
2022-09-30T22:31:22.270Z,2.97
2022-09-30T22:36:39.652Z,2.25
2022-09-30T22:41:39.406Z,2.28
2022-09-30T22:46:39.484Z,1.95
2022-09-30T22:51:39.715Z,2.33
2022-09-30T22:56:38.569Z,2.40
2022-09-30T23:01:37.575Z,2.00
2022-09-30T23:06:36.776Z,2.33
2022-09-30T23:11:37.018Z,1.80
2022-09-30T23:16:35.982Z,1.92
2022-09-30T23:21:35.498Z,2.13
2022-09-30T23:26:34.591Z,2.20
2022-09-30T23:31:35.816Z,1.90
2022-09-30T23:36:36.985Z,2.83
2022-09-30T23:41:36.496Z,1.70
2022-09-30T23:46:37.117Z,1.95
2022-09-30T23:51:36.199Z,2.28
2022-09-30T23:56:35.333Z,1.70
